This is the latest recevied weather packets stored in our database for station/object N3WMC. If no packets are shown the sender has not sent any weather packets the latest 10 day(s).
| Time | Temp. | Humidity | Pressure | Rain* | Wind** | Luminosity | Snow |
|---|---|---|---|---|---|---|---|
| 1787592566 | 21.11° C | 59% | 1017.3 hPa | 0 mm | - | 201 W/m² | - |
| 1787592260 | 21.67° C | 58% | 1017.5 hPa | 0 mm | - | 254 W/m² | - |
| 1787591956 | 21.67° C | 56% | 1017.5 hPa | 0 mm | - | 716 W/m² | - |
| 1787591651 | 20.56° C | 60% | 1017.5 hPa | 0 mm | - | 224 W/m² | - |
| 1787591347 | 21.11° C | 59% | 1017.3 hPa | 0 mm | - | 246 W/m² | - |
| 1787591042 | 21.11° C | 60% | 1017.5 hPa | 0 mm | - | 778 W/m² | - |
| 1787590738 | 21.11° C | 58% | 1017.3 hPa | 0 mm | - | 805 W/m² | - |
| 1787590433 | 21.67° C | 57% | 1017.2 hPa | 0 mm | - | 761 W/m² | - |
| 1787590128 | 22.22° C | 56% | 1017.3 hPa | 0 mm | - | 751 W/m² | - |
| 1787589823 | 20.56° C | 58% | 1017.3 hPa | 0 mm | - | 661 W/m² | - |
| 1787589519 | 20.56° C | 60% | 1017.5 hPa | 0 mm | - | 768 W/m² | - |
| 1787589214 | 21.11° C | 58% | 1017.4 hPa | 0 mm | - | 501 W/m² | - |
| 1787588909 | 20° C | 63% | 1017.4 hPa | 0 mm | - | 218 W/m² | - |
| 1787588606 | 20° C | 63% | 1017.5 hPa | 0 mm | - | 764 W/m² | - |
| 1787588301 | 20° C | 63% | 1017.6 hPa | 0 mm | - | 777 W/m² | - |
| 1787587996 | 20° C | 65% | 1017.3 hPa | 0 mm | - | 713 W/m² | - |
| 1787587692 | 20° C | 64% | 1017.4 hPa | 0 mm | - | 688 W/m² | - |
| 1787587386 | 19.44° C | 67% | 1017.3 hPa | 0 mm | - | 715 W/m² | - |
| 1787587080 | 19.44° C | 67% | 1017.4 hPa | 0 mm | - | 197 W/m² | - |
| 1787586775 | 18.89° C | 67% | 1017.4 hPa | 0 mm | - | 128 W/m² | - |
| 1787586470 | 20° C | 62% | 1017.4 hPa | 0 mm | - | 158 W/m² | - |
| 1787586166 | 20° C | 65% | 1017.6 hPa | 0 mm | - | 680 W/m² | - |
| 1787585862 | 20° C | 65% | 1017.4 hPa | 0 mm | - | 561 W/m² | - |
| 1787585562 | 19.44° C | 65% | 1017.5 hPa | 0 mm | - | 722 W/m² | - |
| 1787585257 | 19.44° C | 66% | 1017.1 hPa | 0 mm | - | 223 W/m² | - |
* Rain latest hour (hover to see other rain measurements)
** Current wind speed in m/s (hover to see current wind gust speed)